sensor_id;sensor_type;location;lat;lon;timestamp;pressure;altitude;pressure_sealevel;temperature;humidity
66560;BME280;53413;49.878;8.142;2022-12-28T00:00:46;100676.47;;;1.45;100.00
66560;BME280;53413;49.878;8.142;2022-12-28T00:03:12;100667.84;;;1.43;100.00
66560;BME280;53413;49.878;8.142;2022-12-28T00:05:37;100657.47;;;1.38;100.00
66560;BME280;53413;49.878;8.142;2022-12-28T00:08:02;100648.88;;;1.41;100.00
66560;BME280;53413;49.878;8.142;2022-12-28T00:10:29;100645.50;;;1.45;100.00
66560;BME280;53413;49.878;8.142;2022-12-28T00:12:54;100642.09;;;1.49;100.00
66560;BME280;53413;49.878;8.142;2022-12-28T00:15:20;100636.94;;;1.49;100.00
66560;BME280;53413;49.878;8.142;2022-12-28T00:17:45;100628.31;;;1.50;100.00
66560;BME280;53413;49.878;8.142;2022-12-28T00:20:11;100627.44;;;1.48;100.00
66560;BME280;53413;49.878;8.142;2022-12-28T00:22:36;100626.59;;;1.52;100.00
66560;BME280;53413;49.878;8.142;2022-12-28T00:25:01;100621.53;;;1.62;100.00
66560;BME280;53413;49.878;8.142;2022-12-28T00:27:27;100611.28;;;1.71;100.00
66560;BME280;53413;49.878;8.142;2022-12-28T00:29:52;100608.78;;;1.83;100.00
66560;BME280;53413;49.878;8.142;2022-12-28T00:32:17;100604.59;;;1.98;100.00
66560;BME280;53413;49.878;8.142;2022-12-28T00:34:43;100601.25;;;2.18;100.00
66560;BME280;53413;49.878;8.142;2022-12-28T00:37:08;100600.50;;;2.40;100.00
66560;BME280;53413;49.878;8.142;2022-12-28T00:39:33;100602.31;;;2.61;100.00
66560;BME280;53413;49.878;8.142;2022-12-28T00:41:59;100598.94;;;2.83;100.00
66560;BME280;53413;49.878;8.142;2022-12-28T00:44:24;100594.69;;;2.99;100.00
66560;BME280;53413;49.878;8.142;2022-12-28T00:46:49;100589.53;;;3.13;100.00
66560;BME280;53413;49.878;8.142;2022-12-28T00:49:15;100578.31;;;3.23;100.00
66560;BME280;53413;49.878;8.142;2022-12-28T00:51:40;100569.69;;;3.32;100.00
66560;BME280;53413;49.878;8.142;2022-12-28T00:54:05;100569.66;;;3.38;100.00
66560;BME280;53413;49.878;8.142;2022-12-28T00:56:31;100561.94;;;3.43;100.00
66560;BME280;53413;49.878;8.142;2022-12-28T00:58:57;100562.78;;;3.46;100.00
66560;BME280;53413;49.878;8.142;2022-12-28T01:01:24;100560.19;;;3.43;100.00
66560;BME280;53413;49.878;8.142;2022-12-28T01:03:50;100548.09;;;3.44;100.00
66560;BME280;53413;49.878;8.142;2022-12-28T01:06:17;100546.38;;;3.46;100.00
66560;BME280;53413;49.878;8.142;2022-12-28T01:08:43;100536.03;;;3.43;100.00
66560;BME280;53413;49.878;8.142;2022-12-28T01:11:10;100524.78;;;3.42;100.00
66560;BME280;53413;49.878;8.142;2022-12-28T01:13:37;100523.94;;;3.42;100.00
66560;BME280;53413;49.878;8.142;2022-12-28T01:16:32;100517.88;;;3.43;100.00
66560;BME280;53413;49.878;8.142;2022-12-28T01:19:00;100518.72;;;3.45;100.00
66560;BME280;53413;49.878;8.142;2022-12-28T01:21:29;100508.34;;;3.45;100.00
66560;BME280;53413;49.878;8.142;2022-12-28T01:23:57;100510.97;;;3.51;100.00
66560;BME280;53413;49.878;8.142;2022-12-28T01:26:24;100499.72;;;3.61;100.00
66560;BME280;53413;49.878;8.142;2022-12-28T01:28:50;100504.88;;;3.67;100.00
66560;BME280;53413;49.878;8.142;2022-12-28T01:31:18;100507.47;;;3.74;100.00
66560;BME280;53413;49.878;8.142;2022-12-28T01:33:44;100502.28;;;3.81;100.00
66560;BME280;53413;49.878;8.142;2022-12-28T01:38:40;100504.81;;;3.94;100.00
66560;BME280;53413;49.878;8.142;2022-12-28T01:41:07;100495.28;;;4.02;100.00
66560;BME280;53413;49.878;8.142;2022-12-28T01:49:13;100515.09;;;4.20;100.00
66560;BME280;53413;49.878;8.142;2022-12-28T01:54:10;100506.41;;;4.30;100.00
66560;BME280;53413;49.878;8.142;2022-12-28T01:56:35;100507.28;;;4.32;100.00
66560;BME280;53413;49.878;8.142;2022-12-28T01:59:01;100501.22;;;4.34;100.00
66560;BME280;53413;49.878;8.142;2022-12-28T02:01:27;100494.28;;;4.32;100.00
66560;BME280;53413;49.878;8.142;2022-12-28T02:03:52;100491.72;;;4.31;100.00
66560;BME280;53413;49.878;8.142;2022-12-28T02:06:18;100492.56;;;4.31;100.00
66560;BME280;53413;49.878;8.142;2022-12-28T02:09:00;100490.84;;;4.30;100.00
66560;BME280;53413;49.878;8.142;2022-12-28T02:11:28;100496.03;;;4.34;100.00
66560;BME280;53413;49.878;8.142;2022-12-28T02:13:54;100495.16;;;4.35;100.00
66560;BME280;53413;49.878;8.142;2022-12-28T02:16:19;100487.38;;;4.31;100.00
66560;BME280;53413;49.878;8.142;2022-12-28T02:18:45;100485.66;;;4.30;100.00
66560;BME280;53413;49.878;8.142;2022-12-28T02:25:04;100487.38;;;4.31;100.00
66560;BME280;53413;49.878;8.142;2022-12-28T02:27:51;100476.16;;;4.25;100.00
66560;BME280;53413;49.878;8.142;2022-12-28T02:30:19;100465.00;;;4.12;100.00
66560;BME280;53413;49.878;8.142;2022-12-28T02:38:21;100465.06;;;3.96;100.00
66560;BME280;53413;49.878;8.142;2022-12-28T02:40:52;100443.47;;;3.96;100.00
66560;BME280;53413;49.878;8.142;2022-12-28T02:43:20;100449.50;;;3.96;100.00
66560;BME280;53413;49.878;8.142;2022-12-28T02:45:46;100446.03;;;3.94;100.00
66560;BME280;53413;49.878;8.142;2022-12-28T02:48:45;100433.94;;;3.96;100.00
66560;BME280;53413;49.878;8.142;2022-12-28T02:54:40;100416.59;;;4.05;100.00
66560;BME280;53413;49.878;8.142;2022-12-28T03:00:09;100408.75;;;4.17;100.00
66560;BME280;53413;49.878;8.142;2022-12-28T03:08:10;100404.34;;;4.31;100.00
66560;BME280;53413;49.878;8.142;2022-12-28T03:10:59;100398.28;;;4.39;100.00
66560;BME280;53413;49.878;8.142;2022-12-28T03:13:45;100402.53;;;4.49;100.00
66560;BME280;53413;49.878;8.142;2022-12-28T03:16:33;100398.13;;;4.57;100.00
66560;BME280;53413;49.878;8.142;2022-12-28T03:19:20;100384.25;;;4.63;100.00
66560;BME280;53413;49.878;8.142;2022-12-28T03:22:06;100386.75;;;4.72;100.00
66560;BME280;53413;49.878;8.142;2022-12-28T03:24:51;100384.94;;;4.85;100.00
66560;BME280;53413;49.878;8.142;2022-12-28T03:27:36;100383.97;;;4.96;100.00
66560;BME280;53413;49.878;8.142;2022-12-28T03:30:21;100373.47;;;5.11;100.00
66560;BME280;53413;49.878;8.142;2022-12-28T03:33:06;100368.94;;;5.29;100.00
66560;BME280;53413;49.878;8.142;2022-12-28T03:35:45;100360.13;;;5.42;100.00
66560;BME280;53413;49.878;8.142;2022-12-28T03:38:20;100352.22;;;5.53;100.00
66560;BME280;53413;49.878;8.142;2022-12-28T03:40:57;100343.47;;;5.59;100.00
66560;BME280;53413;49.878;8.142;2022-12-28T03:43:27;100342.50;;;5.66;100.00
66560;BME280;53413;49.878;8.142;2022-12-28T03:48:39;100319.00;;;5.75;100.00
66560;BME280;53413;49.878;8.142;2022-12-28T03:51:06;100314.53;;;5.83;100.00
66560;BME280;53413;49.878;8.142;2022-12-28T03:53:40;100315.31;;;5.90;100.00
66560;BME280;53413;49.878;8.142;2022-12-28T03:56:13;100307.47;;;5.93;100.00
66560;BME280;53413;49.878;8.142;2022-12-28T03:58:39;100310.00;;;5.98;100.00
66560;BME280;53413;49.878;8.142;2022-12-28T04:01:05;100312.56;;;6.04;100.00
66560;BME280;53413;49.878;8.142;2022-12-28T04:03:31;100302.13;;;6.07;100.00
66560;BME280;53413;49.878;8.142;2022-12-28T04:05:56;100303.78;;;6.11;100.00
66560;BME280;53413;49.878;8.142;2022-12-28T04:08:21;100302.84;;;6.15;100.00
66560;BME280;53413;49.878;8.142;2022-12-28T04:10:47;100301.00;;;6.22;100.00
66560;BME280;53413;49.878;8.142;2022-12-28T04:13:12;100299.22;;;6.26;100.00
66560;BME280;53413;49.878;8.142;2022-12-28T04:15:37;100301.78;;;6.29;100.00
66560;BME280;53413;49.878;8.142;2022-12-28T04:18:03;100298.22;;;6.33;100.00
66560;BME280;53413;49.878;8.142;2022-12-28T04:20:28;100299.94;;;6.34;100.00
66560;BME280;53413;49.878;8.142;2022-12-28T04:22:54;100291.25;;;6.35;100.00
66560;BME280;53413;49.878;8.142;2022-12-28T04:25:19;100292.94;;;6.39;100.00
66560;BME280;53413;49.878;8.142;2022-12-28T04:27:44;100287.69;;;6.41;100.00
66560;BME280;53413;49.878;8.142;2022-12-28T04:30:10;100295.47;;;6.44;100.00
66560;BME280;53413;49.878;8.142;2022-12-28T04:32:36;100292.81;;;6.45;100.00
66560;BME280;53413;49.878;8.142;2022-12-28T04:35:02;100292.81;;;6.47;100.00
66560;BME280;53413;49.878;8.142;2022-12-28T04:37:28;100298.81;;;6.51;100.00
66560;BME280;53413;49.878;8.142;2022-12-28T04:39:53;100292.75;;;6.50;100.00
66560;BME280;53413;49.878;8.142;2022-12-28T04:42:18;100280.59;;;6.51;100.00
66560;BME280;53413;49.878;8.142;2022-12-28T04:44:44;100280.59;;;6.51;100.00
66560;BME280;53413;49.878;8.142;2022-12-28T04:47:09;100276.22;;;6.51;100.00
66560;BME280;53413;49.878;8.142;2022-12-28T04:49:34;100279.72;;;6.52;100.00
66560;BME280;53413;49.878;8.142;2022-12-28T04:52:00;100277.06;;;6.53;100.00
66560;BME280;53413;49.878;8.142;2022-12-28T04:54:25;100277.06;;;6.55;100.00
66560;BME280;53413;49.878;8.142;2022-12-28T04:56:50;100280.44;;;6.60;100.00
66560;BME280;53413;49.878;8.142;2022-12-28T04:59:16;100272.66;;;6.58;100.00
66560;BME280;53413;49.878;8.142;2022-12-28T05:01:41;100269.13;;;6.61;100.00
66560;BME280;53413;49.878;8.142;2022-12-28T05:04:06;100268.19;;;6.65;100.00
66560;BME280;53413;49.878;8.142;2022-12-28T05:06:32;100264.72;;;6.65;100.00
66560;BME280;53413;49.878;8.142;2022-12-28T05:08:57;100261.22;;;6.66;100.00
66560;BME280;53413;49.878;8.142;2022-12-28T05:11:26;100252.53;;;6.67;100.00
66560;BME280;53413;49.878;8.142;2022-12-28T05:13:52;100253.38;;;6.69;100.00
66560;BME280;53413;49.878;8.142;2022-12-28T05:16:20;100245.56;;;6.69;100.00
66560;BME280;53413;49.878;8.142;2022-12-28T05:18:46;100235.09;;;6.70;100.00
66560;BME280;53413;49.878;8.142;2022-12-28T05:21:17;100235.94;;;6.72;100.00
66560;BME280;53413;49.878;8.142;2022-12-28T05:23:43;100235.88;;;6.75;100.00
66560;BME280;53413;49.878;8.142;2022-12-28T05:26:15;100236.66;;;6.81;100.00
66560;BME280;53413;49.878;8.142;2022-12-28T05:28:41;100235.75;;;6.82;100.00
66560;BME280;53413;49.878;8.142;2022-12-28T05:31:11;100233.16;;;6.82;100.00
66560;BME280;53413;49.878;8.142;2022-12-28T05:33:37;100233.09;;;6.85;100.00
66560;BME280;53413;49.878;8.142;2022-12-28T05:36:17;100230.50;;;6.85;100.00
66560;BME280;53413;49.878;8.142;2022-12-28T05:38:43;100231.38;;;6.84;100.00
66560;BME280;53413;49.878;8.142;2022-12-28T05:41:16;100227.91;;;6.85;100.00
66560;BME280;53413;49.878;8.142;2022-12-28T05:43:42;100235.75;;;6.83;100.00
66560;BME280;53413;49.878;8.142;2022-12-28T05:46:11;100231.38;;;6.84;100.00
66560;BME280;53413;49.878;8.142;2022-12-28T05:48:37;100224.47;;;6.83;100.00
66560;BME280;53413;49.878;8.142;2022-12-28T05:51:06;100229.63;;;6.86;100.00
66560;BME280;53413;49.878;8.142;2022-12-28T05:53:32;100222.69;;;6.85;100.00
66560;BME280;53413;49.878;8.142;2022-12-28T05:56:19;100213.19;;;6.82;100.00
66560;BME280;53413;49.878;8.142;2022-12-28T05:58:46;100208.91;;;6.78;100.00
66560;BME280;53413;49.878;8.142;2022-12-28T06:01:18;100209.84;;;6.74;100.00
66560;BME280;53413;49.878;8.142;2022-12-28T06:03:45;100202.22;;;6.66;100.00
66560;BME280;53413;49.878;8.142;2022-12-28T06:06:16;100209.19;;;6.64;100.00
66560;BME280;53413;49.878;8.142;2022-12-28T06:08:42;100219.69;;;6.59;100.00
66560;BME280;53413;49.878;8.142;2022-12-28T06:11:13;100212.72;;;6.61;100.00
66560;BME280;53413;49.878;8.142;2022-12-28T06:13:39;100212.72;;;6.60;100.00
66560;BME280;53413;49.878;8.142;2022-12-28T06:18:31;100202.38;;;6.57;100.00
66560;BME280;53413;49.878;8.142;2022-12-28T06:23:49;100202.31;;;6.60;100.00
66560;BME280;53413;49.878;8.142;2022-12-28T06:26:17;100204.00;;;6.62;100.00
66560;BME280;53413;49.878;8.142;2022-12-28T06:28:44;100207.47;;;6.63;100.00
66560;BME280;53413;49.878;8.142;2022-12-28T06:31:12;100200.41;;;6.68;100.00
66560;BME280;53413;49.878;8.142;2022-12-28T06:33:39;100198.69;;;6.69;100.00
66560;BME280;53413;49.878;8.142;2022-12-28T06:36:11;100190.81;;;6.72;100.00
66560;BME280;53413;49.878;8.142;2022-12-28T06:38:36;100186.47;;;6.72;100.00
66560;BME280;53413;49.878;8.142;2022-12-28T06:41:03;100191.63;;;6.74;100.00
66560;BME280;53413;49.878;8.142;2022-12-28T06:43:33;100188.22;;;6.72;100.00
66560;BME280;53413;49.878;8.142;2022-12-28T06:45:59;100186.50;;;6.69;100.00
66560;BME280;53413;49.878;8.142;2022-12-28T06:48:25;100183.94;;;6.68;100.00
66560;BME280;53413;49.878;8.142;2022-12-28T06:50:55;100183.09;;;6.67;100.00
66560;BME280;53413;49.878;8.142;2022-12-28T06:53:21;100180.56;;;6.64;100.00
66560;BME280;53413;49.878;8.142;2022-12-28T06:55:54;100171.03;;;6.63;100.00
66560;BME280;53413;49.878;8.142;2022-12-28T06:58:19;100175.38;;;6.61;100.00
66560;BME280;53413;49.878;8.142;2022-12-28T07:00:45;100169.31;;;6.62;100.00
66560;BME280;53413;49.878;8.142;2022-12-28T07:03:10;100167.53;;;6.64;100.00
66560;BME280;53413;49.878;8.142;2022-12-28T07:05:35;100165.75;;;6.66;100.00
66560;BME280;53413;49.878;8.142;2022-12-28T07:08:01;100168.28;;;6.71;100.00
66560;BME280;53413;49.878;8.142;2022-12-28T07:10:26;100164.78;;;6.72;100.00
66560;BME280;53413;49.878;8.142;2022-12-28T07:12:51;100165.56;;;6.74;100.00
66560;BME280;53413;49.878;8.142;2022-12-28T07:15:16;100170.72;;;6.78;100.00
66560;BME280;53413;49.878;8.142;2022-12-28T07:17:42;100171.53;;;6.81;100.00
66560;BME280;53413;49.878;8.142;2022-12-28T07:20:07;100168.03;;;6.83;100.00
66560;BME280;53413;49.878;8.142;2022-12-28T07:22:33;100161.94;;;6.83;100.00
66560;BME280;53413;49.878;8.142;2022-12-28T07:24:58;100153.28;;;6.81;100.00
66560;BME280;53413;49.878;8.142;2022-12-28T07:27:23;100148.16;;;6.77;100.00
66560;BME280;53413;49.878;8.142;2022-12-28T07:29:49;100150.94;;;6.70;100.00
66560;BME280;53413;49.878;8.142;2022-12-28T07:32:14;100143.16;;;6.67;100.00
66560;BME280;53413;49.878;8.142;2022-12-28T07:34:39;100139.72;;;6.66;100.00
66560;BME280;53413;49.878;8.142;2022-12-28T07:37:05;100138.75;;;6.70;100.00
66560;BME280;53413;49.878;8.142;2022-12-28T07:39:30;100131.72;;;6.74;100.00
66560;BME280;53413;49.878;8.142;2022-12-28T07:41:55;100130.78;;;6.78;100.00
66560;BME280;53413;49.878;8.142;2022-12-28T07:44:21;100130.78;;;6.78;100.00
66560;BME280;53413;49.878;8.142;2022-12-28T07:46:46;100133.47;;;6.73;100.00
66560;BME280;53413;49.878;8.142;2022-12-28T07:49:11;100131.81;;;6.71;100.00
66560;BME280;53413;49.878;8.142;2022-12-28T07:51:37;100131.88;;;6.68;100.00
66560;BME280;53413;49.878;8.142;2022-12-28T07:54:04;100137.03;;;6.69;100.00
66560;BME280;53413;49.878;8.142;2022-12-28T07:56:30;100144.03;;;6.67;100.00
66560;BME280;53413;49.878;8.142;2022-12-28T07:58:58;100138.88;;;6.64;100.00
66560;BME280;53413;49.878;8.142;2022-12-28T08:01:29;100147.50;;;6.68;100.00
66560;BME280;53413;49.878;8.142;2022-12-28T08:03:58;100143.00;;;6.74;100.00
66560;BME280;53413;49.878;8.142;2022-12-28T08:06:24;100143.75;;;6.80;100.00
66560;BME280;53413;49.878;8.142;2022-12-28T08:08:52;100150.59;;;6.87;100.00
66560;BME280;53413;49.878;8.142;2022-12-28T08:11:21;100160.84;;;6.93;100.00
66560;BME280;53413;49.878;8.142;2022-12-28T08:13:48;100152.09;;;6.97;100.00
66560;BME280;53413;49.878;8.142;2022-12-28T08:16:15;100151.97;;;7.03;100.00
66560;BME280;53413;49.878;8.142;2022-12-28T08:18:42;100154.50;;;7.08;100.00
66560;BME280;53413;49.878;8.142;2022-12-28T08:21:12;100152.59;;;7.15;100.00
66560;BME280;53413;49.878;8.142;2022-12-28T08:23:38;100147.31;;;7.18;100.00
66560;BME280;53413;49.878;8.142;2022-12-28T08:26:09;100145.47;;;7.23;100.00
66560;BME280;53413;49.878;8.142;2022-12-28T08:28:36;100150.63;;;7.26;100.00
66560;BME280;53413;49.878;8.142;2022-12-28T08:31:17;100143.66;;;7.27;100.00
66560;BME280;53413;49.878;8.142;2022-12-28T08:33:42;100145.31;;;7.29;100.00
66560;BME280;53413;49.878;8.142;2022-12-28T08:36:09;100147.03;;;7.32;100.00
66560;BME280;53413;49.878;8.142;2022-12-28T08:38:36;100145.13;;;7.38;100.00
66560;BME280;53413;49.878;8.142;2022-12-28T08:41:04;100139.75;;;7.45;100.00
66560;BME280;53413;49.878;8.142;2022-12-28T08:43:31;100131.75;;;7.52;100.00
66560;BME280;53413;49.878;8.142;2022-12-28T08:48:22;100125.38;;;7.64;100.00
66560;BME280;53413;49.878;8.142;2022-12-28T08:50:48;100125.94;;;7.77;100.00
66560;BME280;53413;49.878;8.142;2022-12-28T08:53:13;100122.22;;;7.88;100.00
66560;BME280;53413;49.878;8.142;2022-12-28T08:55:38;100120.38;;;7.91;100.00
66560;BME280;53413;49.878;8.142;2022-12-28T08:58:03;100112.28;;;8.02;100.00
66560;BME280;53413;49.878;8.142;2022-12-28T09:00:29;100116.28;;;8.15;100.00
66560;BME280;53413;49.878;8.142;2022-12-28T09:02:57;100120.38;;;8.24;100.00
66560;BME280;53413;49.878;8.142;2022-12-28T09:05:23;100121.13;;;8.29;100.00
66560;BME280;53413;49.878;8.142;2022-12-28T09:07:50;100120.09;;;8.35;100.00
66560;BME280;53413;49.878;8.142;2022-12-28T09:10:16;100123.66;;;8.32;100.00
66560;BME280;53413;49.878;8.142;2022-12-28T09:12:41;100122.84;;;8.30;100.00
66560;BME280;53413;49.878;8.142;2022-12-28T09:15:07;100120.38;;;8.26;100.00
66560;BME280;53413;49.878;8.142;2022-12-28T09:17:32;100123.75;;;8.29;100.00
66560;BME280;53413;49.878;8.142;2022-12-28T09:19:58;100119.38;;;8.30;100.00
66560;BME280;53413;49.878;8.142;2022-12-28T09:22:50;100133.16;;;8.35;100.00
66560;BME280;53413;49.878;8.142;2022-12-28T09:25:18;100134.81;;;8.38;100.00
66560;BME280;53413;49.878;8.142;2022-12-28T09:27:46;100128.41;;;8.51;100.00
66560;BME280;53413;49.878;8.142;2022-12-28T09:30:12;100131.88;;;8.83;100.00
66560;BME280;53413;49.878;8.142;2022-12-28T09:32:38;100124.38;;;9.29;100.00
66560;BME280;53413;49.878;8.142;2022-12-28T09:35:03;100130.63;;;9.53;100.00
66560;BME280;53413;49.878;8.142;2022-12-28T09:37:29;100123.69;;;9.51;100.00
66560;BME280;53413;49.878;8.142;2022-12-28T09:39:54;100137.22;;;9.37;100.00
66560;BME280;53413;49.878;8.142;2022-12-28T09:42:25;100135.72;;;9.30;100.00
66560;BME280;53413;49.878;8.142;2022-12-28T09:44:55;100143.66;;;9.27;100.00
66560;BME280;53413;49.878;8.142;2022-12-28T09:52:33;100144.66;;;8.92;100.00
66560;BME280;53413;49.878;8.142;2022-12-28T09:55:15;100146.72;;;8.81;100.00
66560;BME280;53413;49.878;8.142;2022-12-28T09:57:53;100148.59;;;8.76;100.00
66560;BME280;53413;49.878;8.142;2022-12-28T10:00:31;100134.72;;;8.74;100.00
66560;BME280;53413;49.878;8.142;2022-12-28T10:03:01;100127.53;;;8.82;100.00
66560;BME280;53413;49.878;8.142;2022-12-28T10:05:28;100117.78;;;8.87;100.00
66560;BME280;53413;49.878;8.142;2022-12-28T10:07:55;100115.56;;;9.03;100.00
66560;BME280;53413;49.878;8.142;2022-12-28T10:10:22;100119.00;;;9.05;100.00
66560;BME280;53413;49.878;8.142;2022-12-28T10:12:49;100115.63;;;9.02;100.00
66560;BME280;53413;49.878;8.142;2022-12-28T10:15:15;100117.50;;;8.97;100.00
66560;BME280;53413;49.878;8.142;2022-12-28T10:17:42;100111.59;;;8.91;100.00
66560;BME280;53413;49.878;8.142;2022-12-28T10:20:20;100113.22;;;8.96;100.00
66560;BME280;53413;49.878;8.142;2022-12-28T10:22:50;100098.75;;;9.12;100.00
66560;BME280;53413;49.878;8.142;2022-12-28T10:25:22;100094.63;;;9.33;100.00
66560;BME280;53413;49.878;8.142;2022-12-28T10:27:48;100087.19;;;9.48;100.00
66560;BME280;53413;49.878;8.142;2022-12-28T10:30:23;100087.63;;;9.61;100.00
66560;BME280;53413;49.878;8.142;2022-12-28T10:32:58;100089.19;;;9.66;100.00
66560;BME280;53413;49.878;8.142;2022-12-28T10:37:59;100093.13;;;9.53;100.00
66560;BME280;53413;49.878;8.142;2022-12-28T10:40:27;100089.84;;;9.46;100.00
66560;BME280;53413;49.878;8.142;2022-12-28T10:42:55;100084.06;;;9.36;100.00
66560;BME280;53413;49.878;8.142;2022-12-28T10:45:23;100085.91;;;9.33;100.00
66560;BME280;53413;49.878;8.142;2022-12-28T10:47:52;100083.56;;;9.25;100.00
66560;BME280;53413;49.878;8.142;2022-12-28T10:50:49;100084.84;;;9.12;100.00
66560;BME280;53413;49.878;8.142;2022-12-28T10:53:24;100072.09;;;9.01;100.00
66560;BME280;53413;49.878;8.142;2022-12-28T10:58:30;100065.75;;;9.09;100.00
66560;BME280;53413;49.878;8.142;2022-12-28T11:00:58;100061.19;;;9.16;100.00
66560;BME280;53413;49.878;8.142;2022-12-28T11:03:28;100056.53;;;9.24;100.00
66560;BME280;53413;49.878;8.142;2022-12-28T11:06:14;100051.13;;;9.31;100.00
66560;BME280;53413;49.878;8.142;2022-12-28T11:08:41;100044.06;;;9.33;100.00
66560;BME280;53413;49.878;8.142;2022-12-28T11:11:20;100037.84;;;9.37;100.00
66560;BME280;53413;49.878;8.142;2022-12-28T11:14:11;100032.22;;;9.49;100.00
66560;BME280;53413;49.878;8.142;2022-12-28T11:16:35;100037.59;;;9.70;100.00
66560;BME280;53413;49.878;8.142;2022-12-28T11:19:02;100025.66;;;9.88;100.00
66560;BME280;53413;49.878;8.142;2022-12-28T11:21:27;100014.88;;;9.97;100.00
66560;BME280;53413;49.878;8.142;2022-12-28T11:23:53;100012.03;;;10.04;100.00
66560;BME280;53413;49.878;8.142;2022-12-28T11:26:19;100011.66;;;10.14;100.00
66560;BME280;53413;49.878;8.142;2022-12-28T11:28:48;100008.13;;;10.15;100.00
66560;BME280;53413;49.878;8.142;2022-12-28T11:31:33;100002.34;;;10.06;100.00
66560;BME280;53413;49.878;8.142;2022-12-28T11:34:04;100000.56;;;10.06;100.00
66560;BME280;53413;49.878;8.142;2022-12-28T11:36:36;99993.50;;;10.10;100.00
66560;BME280;53413;49.878;8.142;2022-12-28T11:41:50;99982.94;;;10.35;100.00
66560;BME280;53413;49.878;8.142;2022-12-28T11:47:01;99974.72;;;10.46;100.00
66560;BME280;53413;49.878;8.142;2022-12-28T11:49:30;99973.50;;;10.55;100.00
66560;BME280;53413;49.878;8.142;2022-12-28T11:54:51;99971.13;;;10.71;100.00
66560;BME280;53413;49.878;8.142;2022-12-28T11:57:39;99962.53;;;10.67;100.00
66560;BME280;53413;49.878;8.142;2022-12-28T12:10:47;99947.97;;;10.60;100.00
66560;BME280;53413;49.878;8.142;2022-12-28T12:15:59;99948.91;;;10.11;100.00
66560;BME280;53413;49.878;8.142;2022-12-28T12:18:28;99946.81;;;9.97;100.00
66560;BME280;53413;49.878;8.142;2022-12-28T12:21:07;99941.00;;;9.89;100.00
66560;BME280;53413;49.878;8.142;2022-12-28T12:23:41;99950.63;;;9.89;100.00
66560;BME280;53413;49.878;8.142;2022-12-28T12:28:58;99934.66;;;9.95;100.00
66560;BME280;53413;49.878;8.142;2022-12-28T12:34:04;99936.09;;;10.04;100.00
66560;BME280;53413;49.878;8.142;2022-12-28T12:36:52;99924.66;;;10.06;100.00
66560;BME280;53413;49.878;8.142;2022-12-28T12:39:30;99919.31;;;10.09;100.00
66560;BME280;53413;49.878;8.142;2022-12-28T12:42:12;99919.09;;;10.15;100.00
66560;BME280;53413;49.878;8.142;2022-12-28T12:44:55;99915.59;;;10.15;100.00
66560;BME280;53413;49.878;8.142;2022-12-28T12:47:52;99915.53;;;10.16;100.00
66560;BME280;53413;49.878;8.142;2022-12-28T12:50:36;99918.78;;;10.23;100.00
66560;BME280;53413;49.878;8.142;2022-12-28T12:58:47;99918.47;;;10.09;100.00
66560;BME280;53413;49.878;8.142;2022-12-28T13:03:49;99901.22;;;10.03;100.00
66560;BME280;53413;49.878;8.142;2022-12-28T13:06:19;99903.03;;;10.01;100.00
66560;BME280;53413;49.878;8.142;2022-12-28T13:08:48;99896.22;;;9.97;100.00
66560;BME280;53413;49.878;8.142;2022-12-28T13:11:17;99899.91;;;9.91;100.00
66560;BME280;53413;49.878;8.142;2022-12-28T13:13:45;99889.69;;;9.85;100.00
66560;BME280;53413;49.878;8.142;2022-12-28T13:16:17;99896.03;;;9.78;100.00
66560;BME280;53413;49.878;8.142;2022-12-28T13:18:54;99891.09;;;9.70;100.00
66560;BME280;53413;49.878;8.142;2022-12-28T13:21:20;99888.81;;;9.61;100.00
66560;BME280;53413;49.878;8.142;2022-12-28T13:23:47;99888.13;;;9.55;100.00
66560;BME280;53413;49.878;8.142;2022-12-28T13:26:14;99878.63;;;9.53;100.00
66560;BME280;53413;49.878;8.142;2022-12-28T13:28:58;99881.41;;;9.48;100.00
66560;BME280;53413;49.878;8.142;2022-12-28T13:31:31;99857.28;;;9.40;100.00
66560;BME280;53413;49.878;8.142;2022-12-28T13:34:03;99862.72;;;9.34;100.00
66560;BME280;53413;49.878;8.142;2022-12-28T13:36:29;99855.06;;;9.29;100.00
66560;BME280;53413;49.878;8.142;2022-12-28T13:39:09;99858.72;;;9.23;100.00
66560;BME280;53413;49.878;8.142;2022-12-28T13:41:36;99846.69;;;9.19;100.00
66560;BME280;53413;49.878;8.142;2022-12-28T13:44:13;99845.91;;;9.17;100.00
66560;BME280;53413;49.878;8.142;2022-12-28T13:46:43;99835.53;;;9.14;100.00
66560;BME280;53413;49.878;8.142;2022-12-28T13:49:10;99832.22;;;9.09;100.00
66560;BME280;53413;49.878;8.142;2022-12-28T13:51:38;99825.31;;;9.08;100.00
66560;BME280;53413;49.878;8.142;2022-12-28T13:54:05;99826.88;;;9.12;100.00
66560;BME280;53413;49.878;8.142;2022-12-28T13:56:32;99827.75;;;9.13;100.00
66560;BME280;53413;49.878;8.142;2022-12-28T13:59:02;99823.38;;;9.13;100.00
66560;BME280;53413;49.878;8.142;2022-12-28T14:01:34;99816.34;;;9.15;100.00
66560;BME280;53413;49.878;8.142;2022-12-28T14:04:05;99819.69;;;9.19;100.00
66560;BME280;53413;49.878;8.142;2022-12-28T14:06:31;99816.88;;;9.25;100.00
66560;BME280;53413;49.878;8.142;2022-12-28T14:08:57;99808.97;;;9.27;100.00
66560;BME280;53413;49.878;8.142;2022-12-28T14:11:23;99814.91;;;9.30;100.00
66560;BME280;53413;49.878;8.142;2022-12-28T14:13:49;99802.53;;;9.35;100.00
66560;BME280;53413;49.878;8.142;2022-12-28T14:16:14;99805.91;;;9.39;100.00
66560;BME280;53413;49.878;8.142;2022-12-28T14:18:41;99801.56;;;9.38;100.00
66560;BME280;53413;49.878;8.142;2022-12-28T14:21:06;99798.06;;;9.39;100.00
66560;BME280;53413;49.878;8.142;2022-12-28T14:23:37;99792.81;;;9.39;100.00
66560;BME280;53413;49.878;8.142;2022-12-28T14:26:05;99787.53;;;9.40;100.00
66560;BME280;53413;49.878;8.142;2022-12-28T14:28:35;99792.72;;;9.42;100.00